createdAt,value
2023-05-22T00:00:02.303Z,3.60
2023-05-22T00:02:43.409Z,2.50
2023-05-22T00:05:13.129Z,2.90
2023-05-22T00:07:43.647Z,3.00
2023-05-22T00:10:12.494Z,3.00
2023-05-22T00:12:42.275Z,2.60
2023-05-22T00:15:12.792Z,3.03
2023-05-22T00:17:42.329Z,3.00
2023-05-22T00:20:11.587Z,2.90
2023-05-22T00:22:40.003Z,2.33
2023-05-22T00:25:09.691Z,2.50
2023-05-22T00:27:39.149Z,2.90
2023-05-22T00:30:10.311Z,2.90
2023-05-22T00:32:38.896Z,2.90
2023-05-22T00:35:08.485Z,2.40
2023-05-22T00:37:36.855Z,3.50
2023-05-22T00:40:06.249Z,2.73
2023-05-22T00:42:34.740Z,3.27
2023-05-22T00:45:03.198Z,3.10
2023-05-22T00:47:33.049Z,3.00
2023-05-22T00:50:01.951Z,2.43
2023-05-22T00:52:31.523Z,2.97
2023-05-22T00:55:00.870Z,3.83
2023-05-22T00:57:29.542Z,2.80
2023-05-22T00:59:58.899Z,3.23
2023-05-22T01:02:33.039Z,2.80
2023-05-22T01:05:04.413Z,2.53
2023-05-22T01:07:33.401Z,3.10
2023-05-22T01:10:01.782Z,3.47
2023-05-22T01:12:39.890Z,2.87
2023-05-22T01:15:17.627Z,3.13
2023-05-22T01:17:57.747Z,3.80
2023-05-22T01:20:33.470Z,3.30
2023-05-22T01:23:34.358Z,3.10
2023-05-22T01:26:20.761Z,3.77
2023-05-22T01:29:14.204Z,2.87
2023-05-22T01:31:47.258Z,3.07
2023-05-22T01:34:17.718Z,2.50
2023-05-22T01:36:48.061Z,2.70
2023-05-22T01:39:17.536Z,3.57
2023-05-22T01:41:47.483Z,3.33
2023-05-22T01:44:16.599Z,2.93
2023-05-22T01:46:46.830Z,3.50
2023-05-22T01:49:15.604Z,2.80
2023-05-22T01:51:53.446Z,2.83
2023-05-22T01:54:28.320Z,3.10
2023-05-22T01:57:00.669Z,2.83
2023-05-22T01:59:35.889Z,3.57
2023-05-22T02:02:09.231Z,3.17
2023-05-22T02:04:40.619Z,3.67
2023-05-22T02:07:12.326Z,3.23
2023-05-22T02:09:43.520Z,2.90
2023-05-22T02:12:14.342Z,3.23
2023-05-22T02:14:43.940Z,2.63
2023-05-22T02:17:13.991Z,3.03
2023-05-22T02:19:44.070Z,3.27
2023-05-22T02:22:13.954Z,3.67
2023-05-22T02:24:44.698Z,3.63
2023-05-22T02:27:13.214Z,2.93
2023-05-22T02:29:41.922Z,3.03
2023-05-22T02:32:11.259Z,3.30
2023-05-22T02:34:41.138Z,3.57
2023-05-22T02:37:09.584Z,3.77
2023-05-22T02:39:37.940Z,3.87
2023-05-22T02:42:07.734Z,3.73
2023-05-22T02:44:36.365Z,3.50
2023-05-22T02:47:06.333Z,3.57
2023-05-22T02:49:34.844Z,3.10
2023-05-22T02:52:04.810Z,3.70
2023-05-22T02:54:33.172Z,3.03
2023-05-22T02:57:02.984Z,3.60
2023-05-22T02:59:31.761Z,3.27
2023-05-22T03:02:00.431Z,3.77
2023-05-22T03:04:29.716Z,3.33
2023-05-22T03:06:58.155Z,2.93
2023-05-22T03:09:28.432Z,4.03
2023-05-22T03:11:56.882Z,3.40
2023-05-22T03:14:25.310Z,2.77
2023-05-22T03:16:54.877Z,3.17
2023-05-22T03:19:24.912Z,3.23
2023-05-22T03:21:53.947Z,3.30
2023-05-22T03:24:23.628Z,3.23
2023-05-22T03:26:53.527Z,3.20
2023-05-22T03:29:30.752Z,3.33
2023-05-22T03:32:00.086Z,3.27
2023-05-22T03:34:30.106Z,4.00
2023-05-22T03:36:58.678Z,3.03
2023-05-22T03:39:27.135Z,4.20
2023-05-22T03:42:08.321Z,3.30
2023-05-22T03:44:36.939Z,3.43
2023-05-22T03:47:05.832Z,3.93
2023-05-22T03:49:34.264Z,3.73
2023-05-22T03:52:04.179Z,3.73
2023-05-22T03:54:32.669Z,3.17
2023-05-22T03:57:01.227Z,3.37
2023-05-22T03:59:32.091Z,3.87
2023-05-22T04:02:03.766Z,3.90
2023-05-22T04:04:32.493Z,3.80
2023-05-22T04:07:02.830Z,3.47
2023-05-22T04:09:34.507Z,4.17
2023-05-22T04:12:03.714Z,3.23
2023-05-22T04:14:33.935Z,3.50
2023-05-22T04:17:02.430Z,3.40
2023-05-22T04:19:30.947Z,3.83
2023-05-22T04:21:59.767Z,3.33
2023-05-22T04:24:28.070Z,3.13
2023-05-22T04:27:00.168Z,2.97
2023-05-22T04:29:29.261Z,4.43
2023-05-22T04:32:00.317Z,3.80
2023-05-22T04:34:30.352Z,3.50
2023-05-22T04:37:00.208Z,3.60
2023-05-22T04:39:28.674Z,3.40
2023-05-22T04:42:05.849Z,4.20
2023-05-22T04:44:35.511Z,3.50
2023-05-22T04:47:08.190Z,3.93
2023-05-22T04:49:36.910Z,4.60
2023-05-22T04:52:07.390Z,3.83
2023-05-22T04:54:36.319Z,3.43
2023-05-22T04:57:05.278Z,4.07
2023-05-22T04:59:38.117Z,3.80
2023-05-22T05:02:08.562Z,4.10
2023-05-22T05:04:37.628Z,4.43
2023-05-22T05:07:07.304Z,4.30
2023-05-22T05:09:35.868Z,3.90
2023-05-22T05:12:04.795Z,3.47
2023-05-22T05:14:33.185Z,3.93
2023-05-22T05:17:02.593Z,4.00
2023-05-22T05:19:34.163Z,4.50
2023-05-22T05:22:04.706Z,4.27
2023-05-22T05:24:33.723Z,4.57
2023-05-22T05:27:02.234Z,4.67
2023-05-22T05:29:31.346Z,4.47
2023-05-22T05:32:06.778Z,5.33
2023-05-22T05:34:48.213Z,4.80
2023-05-22T05:37:35.137Z,4.57
2023-05-22T05:40:07.725Z,4.60
2023-05-22T05:42:37.969Z,4.23
2023-05-22T05:45:08.113Z,4.37
2023-05-22T05:47:36.590Z,3.80
2023-05-22T05:50:07.433Z,3.80
2023-05-22T05:52:37.164Z,4.67
2023-05-22T05:55:12.539Z,4.80
2023-05-22T05:57:41.900Z,4.87
2023-05-22T06:00:15.570Z,4.00
2023-05-22T06:02:44.067Z,4.43
2023-05-22T06:05:47.612Z,5.40
2023-05-22T06:08:43.537Z,5.00
2023-05-22T06:11:12.314Z,4.27
2023-05-22T06:13:51.773Z,3.97
2023-05-22T06:16:20.526Z,4.33
2023-05-22T06:18:49.745Z,3.90
2023-05-22T06:21:21.210Z,3.83
2023-05-22T06:23:51.026Z,5.50
2023-05-22T06:26:20.271Z,3.87
2023-05-22T06:28:51.904Z,4.50
2023-05-22T06:31:24.642Z,4.70
2023-05-22T06:33:56.284Z,3.90
2023-05-22T06:36:27.552Z,4.50
2023-05-22T06:38:57.044Z,4.37
2023-05-22T06:41:43.935Z,4.27
2023-05-22T06:44:14.788Z,4.07
2023-05-22T06:46:43.201Z,4.27
2023-05-22T06:49:18.752Z,4.97
2023-05-22T06:51:52.253Z,4.93
2023-05-22T06:54:21.594Z,4.40
2023-05-22T06:56:53.882Z,4.20
2023-05-22T06:59:22.823Z,4.20
2023-05-22T07:02:06.887Z,4.03
2023-05-22T07:04:56.325Z,3.93
2023-05-22T07:07:33.817Z,4.00
2023-05-22T07:10:02.524Z,4.20
2023-05-22T07:12:33.825Z,3.80
2023-05-22T07:15:03.522Z,3.65
2023-05-22T07:17:33.178Z,3.75
2023-05-22T07:20:01.879Z,4.03
2023-05-22T07:22:31.268Z,3.85
2023-05-22T07:25:01.262Z,4.05
2023-05-22T07:27:33.511Z,3.83
2023-05-22T07:30:03.397Z,3.92
2023-05-22T07:32:33.506Z,4.03
2023-05-22T07:35:04.991Z,4.70
2023-05-22T07:37:36.102Z,3.75
2023-05-22T07:40:07.726Z,4.53
2023-05-22T07:42:36.557Z,3.70
2023-05-22T07:45:06.638Z,4.10
2023-05-22T07:47:35.278Z,4.68
2023-05-22T07:50:04.592Z,4.60
2023-05-22T07:52:36.033Z,4.80
2023-05-22T07:55:08.737Z,4.70
2023-05-22T07:57:40.120Z,4.37
2023-05-22T08:00:18.716Z,4.53
2023-05-22T08:02:47.500Z,4.60
2023-05-22T08:05:16.192Z,5.25
2023-05-22T08:07:44.853Z,4.97
2023-05-22T08:10:18.246Z,4.75
2023-05-22T08:12:47.058Z,4.87
2023-05-22T08:15:15.660Z,4.43
2023-05-22T08:17:44.292Z,4.80
2023-05-22T08:20:13.786Z,4.80
2023-05-22T08:22:42.634Z,4.93
2023-05-22T08:25:11.384Z,5.00
2023-05-22T08:27:41.337Z,4.97
2023-05-22T08:30:10.356Z,5.13
2023-05-22T08:32:39.580Z,5.00
2023-05-22T08:35:08.746Z,5.50
2023-05-22T08:37:37.328Z,5.17
2023-05-22T08:40:07.150Z,5.20
2023-05-22T08:42:35.677Z,5.10
2023-05-22T08:45:07.224Z,5.13
2023-05-22T08:47:37.315Z,5.20
2023-05-22T08:50:07.430Z,4.93
2023-05-22T08:52:44.281Z,6.68
2023-05-22T08:55:13.311Z,6.55
2023-05-22T08:57:42.237Z,5.82
2023-05-22T09:00:13.629Z,6.55
2023-05-22T09:02:43.049Z,6.10
2023-05-22T09:05:11.776Z,6.28
2023-05-22T09:07:41.052Z,6.07
2023-05-22T09:10:09.905Z,5.93
2023-05-22T09:12:38.931Z,6.10
2023-05-22T09:15:13.779Z,5.90
2023-05-22T09:17:42.638Z,5.57
2023-05-22T09:20:15.899Z,6.20
2023-05-22T09:22:44.572Z,5.63
2023-05-22T09:25:19.733Z,5.65
2023-05-22T09:27:48.420Z,6.07
2023-05-22T09:30:19.552Z,6.10
2023-05-22T09:32:50.186Z,5.85
2023-05-22T09:35:20.347Z,5.60
2023-05-22T09:37:51.922Z,5.47
2023-05-22T09:40:20.314Z,5.47
2023-05-22T09:42:48.718Z,5.68
2023-05-22T09:45:22.917Z,5.72
2023-05-22T09:47:51.879Z,5.78
2023-05-22T09:50:20.775Z,6.00
2023-05-22T09:52:52.240Z,6.05
2023-05-22T09:55:22.971Z,5.70
2023-05-22T09:57:53.741Z,5.57
2023-05-22T10:00:25.478Z,5.70
2023-05-22T10:03:03.730Z,6.00
2023-05-22T10:05:34.145Z,5.63
2023-05-22T10:08:10.387Z,5.50
2023-05-22T10:10:40.408Z,6.22
2023-05-22T10:13:09.352Z,5.93
2023-05-22T10:15:39.800Z,7.00
2023-05-22T10:18:08.563Z,5.80
2023-05-22T10:20:38.344Z,5.50
2023-05-22T10:23:08.339Z,5.78
2023-05-22T10:25:37.264Z,5.45
2023-05-22T10:28:06.704Z,5.65
2023-05-22T10:30:43.956Z,5.35
2023-05-22T10:33:46.224Z,5.63
2023-05-22T10:36:21.576Z,5.63
2023-05-22T10:39:15.571Z,5.25
2023-05-22T10:41:47.812Z,5.28
2023-05-22T10:44:16.596Z,5.10
2023-05-22T10:46:51.369Z,5.90
2023-05-22T10:49:23.992Z,5.40
2023-05-22T10:51:57.738Z,4.78
2023-05-22T10:54:41.566Z,5.32
2023-05-22T10:57:16.169Z,5.32
2023-05-22T10:59:44.759Z,5.50
2023-05-22T11:02:29.546Z,6.03
2023-05-22T11:05:36.667Z,5.72
2023-05-22T11:08:36.026Z,4.90
2023-05-22T11:11:14.627Z,5.03
2023-05-22T11:13:43.844Z,4.65
2023-05-22T11:16:22.738Z,4.78
2023-05-22T11:19:21.165Z,4.75
2023-05-22T11:21:51.347Z,5.57
2023-05-22T11:24:20.229Z,4.90
2023-05-22T11:27:03.707Z,4.60
2023-05-22T11:29:32.409Z,4.82
2023-05-22T11:32:01.183Z,4.78
2023-05-22T11:34:31.164Z,4.70
2023-05-22T11:37:00.707Z,4.30
2023-05-22T11:39:29.349Z,4.55
2023-05-22T11:41:58.013Z,4.72
2023-05-22T11:44:29.562Z,4.90
2023-05-22T11:46:58.066Z,4.95
2023-05-22T11:49:26.836Z,4.55
2023-05-22T11:51:56.638Z,4.50
2023-05-22T11:54:25.089Z,4.63
2023-05-22T11:56:54.030Z,4.43
2023-05-22T11:59:25.031Z,4.70
2023-05-22T12:01:53.837Z,4.70
2023-05-22T12:04:25.723Z,4.68
2023-05-22T12:06:55.074Z,5.00
2023-05-22T12:09:25.603Z,5.40
2023-05-22T12:11:56.647Z,4.88
2023-05-22T12:14:28.331Z,5.18
2023-05-22T12:16:57.074Z,4.95
2023-05-22T12:19:27.149Z,4.93
2023-05-22T12:21:55.973Z,5.13
2023-05-22T12:24:26.141Z,4.85
2023-05-22T12:26:54.948Z,5.03
2023-05-22T12:29:25.028Z,4.50
2023-05-22T12:31:53.554Z,4.93
2023-05-22T12:34:24.521Z,4.93
2023-05-22T12:36:53.051Z,5.00
2023-05-22T12:39:22.488Z,4.68
2023-05-22T12:41:52.537Z,4.57
2023-05-22T12:44:28.456Z,5.00
2023-05-22T12:46:56.904Z,4.43
2023-05-22T12:49:26.455Z,5.10
2023-05-22T12:51:54.984Z,5.18
2023-05-22T12:54:26.574Z,4.72
2023-05-22T12:56:58.785Z,4.75
2023-05-22T12:59:28.478Z,4.90
2023-05-22T13:02:02.210Z,4.55
2023-05-22T13:04:46.576Z,4.97
2023-05-22T13:07:21.421Z,4.65
2023-05-22T13:09:50.939Z,4.32
2023-05-22T13:12:20.873Z,4.63
2023-05-22T13:14:49.943Z,4.88
2023-05-22T13:17:19.991Z,4.63
2023-05-22T13:19:48.333Z,5.22
2023-05-22T13:22:16.930Z,4.68
2023-05-22T13:24:46.333Z,4.70
2023-05-22T13:27:14.865Z,4.80
2023-05-22T13:29:45.247Z,4.57
2023-05-22T13:32:14.492Z,4.80
2023-05-22T13:34:43.598Z,4.85
2023-05-22T13:37:13.427Z,4.72
2023-05-22T13:39:42.037Z,4.60
2023-05-22T13:42:12.504Z,5.25
2023-05-22T13:44:40.877Z,5.40
2023-05-22T13:47:10.902Z,4.90
2023-05-22T13:49:40.496Z,5.10
2023-05-22T13:52:09.008Z,4.28
2023-05-22T13:54:37.530Z,4.90
2023-05-22T13:57:06.190Z,5.47
2023-05-22T13:59:34.919Z,5.60
2023-05-22T14:02:03.592Z,5.13
2023-05-22T14:04:33.469Z,4.53
2023-05-22T14:07:02.342Z,5.25
2023-05-22T14:09:31.479Z,5.75
2023-05-22T14:12:00.001Z,5.63
2023-05-22T14:14:31.470Z,5.75
2023-05-22T14:17:00.279Z,5.85
2023-05-22T14:19:28.944Z,6.55
2023-05-22T14:21:58.750Z,6.43
2023-05-22T14:24:27.426Z,7.13
2023-05-22T14:26:58.233Z,5.82
2023-05-22T14:29:27.994Z,6.30
2023-05-22T14:32:03.145Z,5.60
2023-05-22T14:34:32.228Z,5.90
2023-05-22T14:37:02.086Z,6.22
2023-05-22T14:39:31.798Z,6.93
2023-05-22T14:42:01.211Z,6.72
2023-05-22T14:44:29.947Z,6.18
2023-05-22T14:46:58.314Z,7.55
2023-05-22T14:49:30.121Z,6.82
2023-05-22T14:51:58.540Z,6.90
2023-05-22T14:54:29.021Z,6.65
2023-05-22T14:56:57.566Z,6.85
2023-05-22T14:59:26.769Z,6.68
2023-05-22T15:01:55.426Z,6.80
2023-05-22T15:04:25.513Z,6.60
2023-05-22T15:06:54.409Z,6.85
2023-05-22T15:09:23.081Z,5.30
2023-05-22T15:11:53.142Z,5.55
2023-05-22T15:14:22.028Z,4.75
2023-05-22T15:16:50.567Z,3.53
2023-05-22T15:19:19.490Z,3.58
2023-05-22T15:21:48.089Z,3.55
2023-05-22T15:24:17.151Z,3.88
2023-05-22T15:26:45.792Z,3.42
2023-05-22T15:29:15.859Z,3.38
2023-05-22T15:31:44.513Z,3.00
2023-05-22T15:34:13.289Z,3.00
2023-05-22T15:36:41.738Z,3.88
2023-05-22T15:39:10.176Z,3.60
2023-05-22T15:44:20.403Z,4.63
2023-05-22T15:46:49.293Z,5.35
2023-05-22T15:54:00.437Z,6.22
2023-05-22T15:56:29.212Z,6.68
2023-05-22T15:58:58.083Z,6.80
2023-05-22T16:01:30.006Z,6.75
2023-05-22T16:04:01.412Z,5.25
2023-05-22T16:06:30.202Z,5.93
2023-05-22T16:08:58.837Z,6.70
2023-05-22T16:11:27.548Z,7.35
2023-05-22T16:13:57.213Z,6.00
2023-05-22T16:16:25.876Z,7.07
2023-05-22T16:18:56.103Z,6.50
2023-05-22T16:21:24.824Z,7.35
2023-05-22T16:23:55.628Z,7.32
2023-05-22T16:26:24.654Z,7.15
2023-05-22T16:28:53.370Z,7.53
2023-05-22T16:31:22.047Z,7.80
2023-05-22T16:33:50.726Z,7.47
2023-05-22T16:36:21.169Z,8.30
2023-05-22T16:38:49.826Z,7.23
2023-05-22T16:41:18.445Z,7.50
2023-05-22T16:43:47.135Z,7.83
2023-05-22T16:46:15.865Z,8.17
2023-05-22T16:48:44.504Z,7.40
2023-05-22T16:51:14.264Z,6.90
2023-05-22T16:53:44.377Z,6.23
2023-05-22T16:56:12.901Z,5.80
2023-05-22T16:58:41.589Z,5.57
2023-05-22T17:01:10.449Z,5.57
2023-05-22T17:03:39.701Z,6.90
2023-05-22T17:06:09.081Z,6.47
2023-05-22T17:08:37.767Z,6.67
2023-05-22T17:11:08.829Z,6.60
2023-05-22T17:13:37.347Z,6.50
2023-05-22T17:16:07.477Z,6.83
2023-05-22T17:18:36.867Z,5.93
2023-05-22T17:21:09.377Z,5.93
2023-05-22T17:23:38.974Z,4.90
2023-05-22T17:26:09.161Z,5.40
2023-05-22T17:28:37.941Z,4.50
2023-05-22T17:31:06.518Z,4.20
2023-05-22T17:33:35.444Z,3.80
2023-05-22T17:36:04.145Z,4.00
2023-05-22T17:38:32.828Z,3.97
2023-05-22T17:41:01.521Z,3.87
2023-05-22T17:48:09.299Z,3.07
2023-05-22T17:50:38.078Z,2.60
2023-05-22T17:53:06.719Z,2.77
2023-05-22T17:55:35.357Z,2.93
2023-05-22T17:58:04.219Z,2.60
2023-05-22T18:00:32.859Z,2.70
2023-05-22T18:03:01.534Z,2.40
2023-05-22T18:05:31.734Z,1.97
2023-05-22T18:08:00.818Z,2.13
2023-05-22T18:10:29.535Z,2.27
2023-05-22T18:12:58.143Z,2.10
2023-05-22T18:15:26.689Z,1.87
2023-05-22T18:17:55.318Z,1.60
2023-05-22T18:20:23.934Z,1.70
2023-05-22T18:27:36.469Z,1.73
2023-05-22T18:30:06.406Z,1.80
2023-05-22T18:32:34.995Z,2.10
2023-05-22T18:35:05.016Z,2.00
2023-05-22T18:37:33.819Z,1.93
2023-05-22T18:40:06.484Z,2.03
2023-05-22T18:42:36.768Z,2.60
2023-05-22T18:45:06.130Z,1.90
2023-05-22T18:47:34.840Z,1.90
2023-05-22T18:50:04.234Z,2.20
2023-05-22T18:52:32.749Z,2.10
2023-05-22T18:55:01.761Z,2.50
2023-05-22T18:57:30.343Z,1.83
2023-05-22T19:00:00.417Z,2.10
2023-05-22T19:02:29.094Z,1.70
2023-05-22T19:04:57.852Z,2.30
2023-05-22T19:07:26.503Z,2.37
2023-05-22T19:09:55.066Z,2.17
2023-05-22T19:12:24.743Z,2.03
2023-05-22T19:14:53.751Z,1.97
2023-05-22T19:17:23.699Z,2.23
2023-05-22T19:19:52.270Z,2.30
2023-05-22T19:22:20.897Z,1.80
2023-05-22T19:24:49.457Z,2.27
2023-05-22T19:27:18.967Z,2.67
2023-05-22T19:29:47.581Z,2.60
2023-05-22T19:32:16.235Z,2.20
2023-05-22T19:34:46.584Z,2.00
2023-05-22T19:37:15.251Z,2.10
2023-05-22T19:39:43.827Z,2.00
2023-05-22T19:42:12.498Z,2.33
2023-05-22T19:44:41.677Z,2.60
2023-05-22T19:47:10.254Z,2.27
2023-05-22T19:49:39.195Z,2.70
2023-05-22T19:52:09.202Z,2.30
2023-05-22T19:54:37.766Z,2.40
2023-05-22T19:57:06.581Z,3.03
2023-05-22T19:59:36.873Z,2.23
2023-05-22T20:02:05.927Z,2.87
2023-05-22T20:04:34.580Z,2.90
2023-05-22T20:07:04.373Z,3.00
2023-05-22T20:09:34.639Z,2.67
2023-05-22T20:12:03.147Z,2.63
2023-05-22T20:14:32.960Z,2.50
2023-05-22T20:17:03.751Z,2.90
2023-05-22T20:19:34.682Z,2.33
2023-05-22T20:22:08.429Z,2.50
2023-05-22T20:24:49.081Z,2.40
2023-05-22T20:27:19.684Z,2.20
2023-05-22T20:29:54.354Z,2.60
2023-05-22T20:32:25.295Z,2.33
2023-05-22T20:35:06.148Z,2.57
2023-05-22T20:37:38.433Z,2.33
2023-05-22T20:40:26.658Z,2.73
2023-05-22T20:42:55.450Z,3.00
2023-05-22T20:45:36.505Z,2.33
2023-05-22T20:48:12.314Z,2.47
2023-05-22T20:50:45.137Z,2.27
2023-05-22T20:53:14.038Z,2.40
2023-05-22T20:55:45.454Z,2.77
2023-05-22T20:58:17.584Z,2.60
2023-05-22T21:00:49.651Z,2.67
2023-05-22T21:03:19.585Z,2.73
2023-05-22T21:05:53.996Z,2.60
2023-05-22T21:08:46.954Z,2.67
2023-05-22T21:11:40.875Z,2.43
2023-05-22T21:14:37.492Z,2.83
2023-05-22T21:17:06.443Z,2.60
2023-05-22T21:19:47.989Z,2.73
2023-05-22T21:22:27.254Z,2.53
2023-05-22T21:24:57.999Z,2.60
2023-05-22T21:27:28.272Z,2.70
2023-05-22T21:29:58.013Z,2.67
2023-05-22T21:32:32.261Z,2.57
2023-05-22T21:35:10.537Z,2.33
2023-05-22T21:37:44.277Z,2.47
2023-05-22T21:40:14.772Z,2.57
2023-05-22T21:42:49.410Z,2.53
2023-05-22T21:45:25.072Z,2.10
2023-05-22T21:47:53.917Z,2.47
2023-05-22T21:50:22.657Z,2.37
2023-05-22T21:52:51.360Z,2.60
2023-05-22T21:55:21.017Z,2.53
2023-05-22T21:58:08.333Z,2.37
2023-05-22T22:00:37.439Z,2.20
2023-05-22T22:03:13.415Z,2.30
2023-05-22T22:05:44.243Z,2.57
2023-05-22T22:08:32.951Z,2.20
2023-05-22T22:11:03.822Z,2.20
2023-05-22T22:13:40.973Z,2.33
2023-05-22T22:16:10.842Z,2.43
2023-05-22T22:18:44.308Z,2.67
2023-05-22T22:21:13.169Z,2.73
2023-05-22T22:23:41.963Z,2.10
2023-05-22T22:26:12.344Z,2.70
2023-05-22T22:28:46.570Z,2.30
2023-05-22T22:31:17.612Z,3.30
2023-05-22T22:33:47.830Z,3.30
2023-05-22T22:36:17.470Z,3.77
2023-05-22T22:38:47.268Z,2.53
2023-05-22T22:41:22.096Z,2.80
2023-05-22T22:43:55.658Z,2.40
2023-05-22T22:46:24.373Z,2.90
2023-05-22T22:48:55.619Z,2.87
2023-05-22T22:51:31.018Z,2.90
2023-05-22T22:54:00.734Z,2.53
2023-05-22T22:56:30.634Z,2.77
2023-05-22T22:59:00.878Z,2.93
2023-05-22T23:01:38.393Z,2.60
2023-05-22T23:04:08.381Z,2.70
2023-05-22T23:06:50.392Z,2.67
2023-05-22T23:09:19.178Z,2.87
2023-05-22T23:11:52.666Z,3.03
2023-05-22T23:14:25.019Z,3.00
2023-05-22T23:16:53.931Z,3.30
2023-05-22T23:19:22.628Z,2.93
2023-05-22T23:21:53.931Z,3.27
2023-05-22T23:24:23.824Z,2.80
2023-05-22T23:26:54.274Z,2.50
2023-05-22T23:29:32.656Z,2.80
2023-05-22T23:32:03.507Z,2.60
2023-05-22T23:34:46.601Z,2.77
2023-05-22T23:37:17.495Z,2.90
2023-05-22T23:39:49.280Z,2.33
2023-05-22T23:42:19.253Z,2.37
2023-05-22T23:44:49.386Z,3.03
2023-05-22T23:47:22.982Z,2.70
2023-05-22T23:50:08.213Z,2.50
2023-05-22T23:52:38.136Z,2.20
2023-05-22T23:55:08.048Z,2.67
2023-05-22T23:57:37.847Z,2.30
